createdAt,value
2023-04-16T00:00:23.312Z,102.3077
2023-04-16T00:01:24.722Z,96.3846
2023-04-16T00:02:27.821Z,98.2308
2023-04-16T00:03:27.774Z,99.7692
2023-04-16T00:04:29.150Z,97.6154
2023-04-16T00:05:30.438Z,100.0769
2023-04-16T00:06:32.678Z,100.9231
2023-04-16T00:07:33.377Z,100.6154
2023-04-16T00:08:34.883Z,98.3846
2023-04-16T00:09:36.217Z,99.8462
2023-04-16T00:10:37.738Z,101.0000
2023-04-16T00:11:39.103Z,96.8462
2023-04-16T00:12:40.734Z,102.3846
2023-04-16T00:13:42.181Z,100.1538
2023-04-16T00:14:43.578Z,95.6923
2023-04-16T00:15:44.858Z,95.0769
2023-04-16T00:16:47.348Z,100.8462
2023-04-16T00:17:47.933Z,96.6154
2023-04-16T00:18:49.365Z,103.5385
2023-04-16T00:19:50.642Z,101.4615
2023-04-16T00:20:52.665Z,97.6154
2023-04-16T00:21:53.530Z,94.3077
2023-04-16T00:22:55.219Z,98.9231
2023-04-16T00:23:56.453Z,100.8462
2023-04-16T00:24:58.705Z,97.6923
2023-04-16T00:25:59.203Z,97.6154
2023-04-16T00:27:00.731Z,98.6154
2023-04-16T00:28:02.177Z,99.6154
2023-04-16T00:29:03.656Z,101.6923
2023-04-16T00:30:04.980Z,100.2308
2023-04-16T00:31:06.537Z,97.6154
2023-04-16T00:32:07.917Z,101.3077
2023-04-16T00:33:09.392Z,99.1538
2023-04-16T00:34:11.149Z,96.6923
2023-04-16T00:35:12.354Z,94.7692
2023-04-16T00:36:16.574Z,97.6154
2023-04-16T00:37:16.088Z,99.9231
2023-04-16T00:38:16.601Z,97.5385
2023-04-16T00:39:18.052Z,96.2308
2023-04-16T00:40:19.432Z,102.6154
2023-04-16T00:41:20.876Z,101.1538
2023-04-16T00:42:22.321Z,99.3846
2023-04-16T00:43:23.782Z,97.6923
2023-04-16T00:44:25.332Z,98.9231
2023-04-16T00:45:26.691Z,102.6154
2023-04-16T00:46:28.209Z,99.2308
2023-04-16T00:47:29.551Z,100.9231
2023-04-16T00:48:31.059Z,104.4615
2023-04-16T00:49:32.497Z,99.3846
2023-04-16T00:50:33.936Z,102.3846
2023-04-16T00:51:35.319Z,99.2308
2023-04-16T00:52:36.797Z,103.3077
2023-04-16T00:53:38.266Z,100.4615
2023-04-16T00:54:39.735Z,100.1538
2023-04-16T00:55:41.129Z,101.5385
2023-04-16T00:56:42.580Z,94.6923
2023-04-16T00:57:44.015Z,96.4615
2023-04-16T00:58:45.518Z,96.1538
2023-04-16T00:59:46.947Z,98.3846
2023-04-16T01:00:48.316Z,100.6154
2023-04-16T01:01:49.781Z,104.2308
2023-04-16T01:02:51.364Z,101.3077
2023-04-16T01:03:52.895Z,98.7692
2023-04-16T01:04:54.136Z,98.6923
2023-04-16T01:05:55.535Z,99.0000
2023-04-16T01:06:57.053Z,103.0769
2023-04-16T01:07:58.518Z,102.3077
2023-04-16T01:09:00.042Z,102.0000
2023-04-16T01:10:01.509Z,95.0000
2023-04-16T01:11:02.876Z,101.8462
2023-04-16T01:12:04.300Z,97.5385
2023-04-16T01:13:05.722Z,101.5385
2023-04-16T01:14:09.204Z,97.3846
2023-04-16T01:15:08.670Z,100.7692
2023-04-16T01:16:10.100Z,98.5385
2023-04-16T01:17:11.516Z,96.7692
2023-04-16T01:18:12.952Z,96.0000
2023-04-16T01:19:14.481Z,102.3846
2023-04-16T01:20:17.751Z,97.4615
2023-04-16T01:21:17.272Z,94.9231
2023-04-16T01:22:18.697Z,103.0000
2023-04-16T01:23:20.184Z,101.4615
2023-04-16T01:24:21.713Z,98.9231
2023-04-16T01:25:23.153Z,102.0000
2023-04-16T01:26:25.139Z,96.4615
2023-04-16T01:27:25.957Z,104.7692
2023-04-16T01:28:28.137Z,102.1538
2023-04-16T01:29:28.879Z,102.9231
2023-04-16T01:30:30.339Z,100.3846
2023-04-16T01:31:31.747Z,101.5385
2023-04-16T01:32:33.227Z,102.8462
2023-04-16T01:33:34.632Z,104.9231
2023-04-16T01:34:36.742Z,106.8462
2023-04-16T01:35:37.608Z,102.3077
2023-04-16T01:36:38.948Z,105.3846
2023-04-16T01:37:40.397Z,102.4615
2023-04-16T01:38:41.795Z,105.0769
2023-04-16T01:39:43.286Z,103.9231
2023-04-16T01:40:44.706Z,105.6923
2023-04-16T01:41:46.225Z,108.1538
2023-04-16T01:42:47.560Z,104.0000
2023-04-16T01:43:49.061Z,101.0769
2023-04-16T01:44:50.480Z,105.0769
2023-04-16T01:45:51.943Z,99.0000
2023-04-16T01:46:53.379Z,102.0769
2023-04-16T01:47:54.845Z,104.5385
2023-04-16T01:48:56.237Z,105.7692
2023-04-16T01:49:57.752Z,104.9231
2023-04-16T01:50:59.147Z,107.0000
2023-04-16T01:52:00.619Z,105.6923
2023-04-16T01:53:01.992Z,100.7692
2023-04-16T01:54:03.435Z,101.1538
2023-04-16T01:55:04.962Z,104.9231
2023-04-16T01:56:06.401Z,103.1538
2023-04-16T01:57:07.786Z,106.6923
2023-04-16T01:58:09.232Z,103.2308
2023-04-16T01:59:11.821Z,105.6923
2023-04-16T02:00:12.164Z,106.3846
2023-04-16T02:01:13.772Z,111.3077
2023-04-16T02:02:15.113Z,110.0769
2023-04-16T02:03:16.695Z,110.8462
2023-04-16T02:04:17.906Z,112.0769
2023-04-16T02:05:19.396Z,105.7692
2023-04-16T02:06:20.828Z,105.1538
2023-04-16T02:07:22.388Z,108.6154
2023-04-16T02:08:23.731Z,109.0769
2023-04-16T02:09:25.224Z,104.7692
2023-04-16T02:10:26.684Z,104.6154
2023-04-16T02:11:28.102Z,107.3846
2023-04-16T02:12:29.499Z,105.0000
2023-04-16T02:13:30.949Z,105.6154
2023-04-16T02:14:32.530Z,110.0000
2023-04-16T02:15:33.866Z,111.2308
2023-04-16T02:16:35.378Z,111.4615
2023-04-16T02:17:36.735Z,107.2308
2023-04-16T02:18:38.201Z,112.6154
2023-04-16T02:19:39.580Z,107.6923
2023-04-16T02:20:41.097Z,108.3077
2023-04-16T02:21:42.486Z,110.6154
2023-04-16T02:22:43.970Z,108.6154
2023-04-16T02:23:45.348Z,107.5385
2023-04-16T02:24:46.908Z,107.9231
2023-04-16T02:25:48.312Z,109.0000
2023-04-16T02:26:49.797Z,107.5385
2023-04-16T02:27:51.178Z,109.0769
2023-04-16T02:28:52.577Z,114.4615
2023-04-16T02:29:54.017Z,112.7692
2023-04-16T02:30:55.497Z,109.9231
2023-04-16T02:31:57.002Z,111.2308
2023-04-16T02:32:58.460Z,112.3077
2023-04-16T02:33:59.788Z,111.9231
2023-04-16T02:35:01.288Z,114.2308
2023-04-16T02:36:02.689Z,110.3846
2023-04-16T02:37:04.156Z,110.3077
2023-04-16T02:38:05.560Z,112.0769
2023-04-16T02:39:07.170Z,111.4615
2023-04-16T02:40:08.488Z,106.5385
2023-04-16T02:41:09.905Z,111.4615
2023-04-16T02:42:11.413Z,107.6923
2023-04-16T02:43:12.746Z,108.6923
2023-04-16T02:44:14.309Z,112.0000
2023-04-16T02:45:15.708Z,110.3077
2023-04-16T02:46:17.233Z,113.7692
2023-04-16T02:47:18.633Z,111.9231
2023-04-16T02:48:20.018Z,114.4615
2023-04-16T02:49:24.148Z,114.5385
2023-04-16T02:50:22.906Z,112.8462
2023-04-16T02:51:24.712Z,117.0769
2023-04-16T02:52:25.930Z,116.3077
2023-04-16T02:53:27.248Z,111.0769
2023-04-16T02:54:28.768Z,106.1538
2023-04-16T02:55:30.140Z,109.3846
2023-04-16T02:56:32.253Z,111.6154
2023-04-16T02:57:33.066Z,115.0769
2023-04-16T02:58:34.510Z,123.2308
2023-04-16T02:59:35.858Z,125.0000
2023-04-16T03:00:37.355Z,127.4615
2023-04-16T03:01:38.845Z,127.6154
2023-04-16T03:02:40.346Z,125.6923
2023-04-16T03:03:41.676Z,130.0000
2023-04-16T03:04:43.127Z,133.2308
2023-04-16T03:05:44.492Z,129.3077
2023-04-16T03:06:46.029Z,134.6154
2023-04-16T03:07:48.231Z,132.6154
2023-04-16T03:08:48.960Z,129.8462
2023-04-16T03:09:51.088Z,130.3077
2023-04-16T03:10:51.780Z,125.7692
2023-04-16T03:11:53.238Z,128.1538
2023-04-16T03:12:54.656Z,126.3077
2023-04-16T03:13:56.098Z,132.4615
2023-04-16T03:14:57.478Z,133.2308
2023-04-16T03:15:59.016Z,128.7692
2023-04-16T03:17:00.602Z,126.7692
2023-04-16T03:18:02.810Z,128.0769
2023-04-16T03:19:03.257Z,136.6154
2023-04-16T03:20:04.736Z,138.0000
2023-04-16T03:21:06.154Z,137.5385
2023-04-16T03:22:08.315Z,139.3077
2023-04-16T03:23:09.182Z,131.9231
2023-04-16T03:24:10.572Z,134.6923
2023-04-16T03:25:11.914Z,140.9231
2023-04-16T03:26:13.439Z,139.4615
2023-04-16T03:27:14.835Z,135.9231
2023-04-16T03:28:16.320Z,132.7692
2023-04-16T03:29:17.758Z,129.2308
2023-04-16T03:30:19.173Z,130.1538
2023-04-16T03:31:20.708Z,137.5385
2023-04-16T03:32:22.077Z,135.0769
2023-04-16T03:33:23.795Z,133.8462
2023-04-16T03:34:25.063Z,134.0769
2023-04-16T03:35:26.378Z,140.3846
2023-04-16T03:36:27.912Z,140.1538
2023-04-16T03:37:29.232Z,139.0769
2023-04-16T03:38:30.779Z,142.5385
2023-04-16T03:39:32.184Z,138.9231
2023-04-16T03:40:33.599Z,137.9231
2023-04-16T03:41:35.007Z,147.3846
2023-04-16T03:42:36.468Z,143.0769
2023-04-16T03:43:37.966Z,141.6923
2023-04-16T03:44:40.270Z,141.3077
2023-04-16T03:45:41.309Z,143.2308
2023-04-16T03:46:42.250Z,137.6154
2023-04-16T03:47:43.810Z,132.6154
2023-04-16T03:48:45.668Z,136.6923
2023-04-16T03:49:48.274Z,141.7692
2023-04-16T03:50:48.047Z,142.4615
2023-04-16T03:51:49.435Z,139.0000
2023-04-16T03:52:51.732Z,142.2308
2023-04-16T03:53:52.327Z,140.4615
2023-04-16T03:54:54.693Z,144.2308
2023-04-16T03:55:55.323Z,143.5385
2023-04-16T03:56:56.620Z,148.4615
2023-04-16T03:58:00.713Z,149.3846
2023-04-16T03:58:59.510Z,143.6923
2023-04-16T04:00:01.359Z,144.7692
2023-04-16T04:01:02.406Z,134.9231
2023-04-16T04:02:04.804Z,145.9231
2023-04-16T04:03:05.370Z,147.9231
2023-04-16T04:04:06.890Z,147.3846
2023-04-16T04:05:08.186Z,149.4615
2023-04-16T04:06:09.620Z,141.6154
2023-04-16T04:07:11.068Z,150.5385
2023-04-16T04:08:12.519Z,155.3077
2023-04-16T04:09:13.914Z,150.8462
2023-04-16T04:10:15.409Z,148.9231
2023-04-16T04:11:16.897Z,148.8462
2023-04-16T04:12:18.244Z,152.8462
2023-04-16T04:13:19.669Z,150.0769
2023-04-16T04:14:21.146Z,155.3077
2023-04-16T04:15:22.713Z,157.3077
2023-04-16T04:16:24.087Z,152.6154
2023-04-16T04:17:25.472Z,153.3077
2023-04-16T04:18:26.928Z,151.8462
2023-04-16T04:19:31.264Z,146.9231
2023-04-16T04:20:29.871Z,151.5385
2023-04-16T04:21:31.743Z,150.5385
2023-04-16T04:22:33.321Z,151.8462
2023-04-16T04:23:34.150Z,154.6154
2023-04-16T04:24:35.582Z,162.0000
2023-04-16T04:25:37.703Z,156.6923
2023-04-16T04:26:38.499Z,151.0000
2023-04-16T04:27:39.856Z,145.6154
2023-04-16T04:28:41.335Z,146.7692
2023-04-16T04:29:42.793Z,149.5385
2023-04-16T04:30:44.218Z,151.3846
2023-04-16T04:31:45.692Z,153.2308
2023-04-16T04:32:47.324Z,155.2308
2023-04-16T04:33:48.459Z,157.3077
2023-04-16T04:34:50.296Z,151.0769
2023-04-16T04:35:51.379Z,149.0000
2023-04-16T04:36:52.948Z,147.2308
2023-04-16T04:37:54.279Z,147.6923
2023-04-16T04:38:55.760Z,153.0769
2023-04-16T04:39:57.133Z,150.8462
2023-04-16T04:40:58.651Z,152.3846
2023-04-16T04:42:00.055Z,147.6154
2023-04-16T04:43:01.531Z,149.2308
2023-04-16T04:44:03.006Z,150.3846
2023-04-16T04:45:04.778Z,146.8462
2023-04-16T04:46:05.861Z,145.0000
2023-04-16T04:47:07.257Z,152.3846
2023-04-16T04:48:08.719Z,150.6154
2023-04-16T04:49:10.443Z,149.4615
2023-04-16T04:50:11.621Z,149.6923
2023-04-16T04:51:13.028Z,149.2308
2023-04-16T04:52:14.408Z,148.6923
2023-04-16T04:53:15.867Z,147.3846
2023-04-16T04:54:17.383Z,149.2308
2023-04-16T04:55:18.841Z,151.0769
2023-04-16T04:56:20.261Z,150.3077
2023-04-16T04:57:21.707Z,158.6154
2023-04-16T04:58:23.077Z,159.0769
2023-04-16T04:59:24.570Z,157.7692
2023-04-16T05:00:26.776Z,163.0000
2023-04-16T05:01:27.469Z,169.0769
2023-04-16T05:02:28.896Z,170.8462
2023-04-16T05:03:30.217Z,180.1538
2023-04-16T05:04:31.612Z,187.4615
2023-04-16T05:05:33.127Z,181.9231
2023-04-16T05:06:36.266Z,183.3077
2023-04-16T05:07:35.996Z,187.0000
2023-04-16T05:08:37.410Z,191.2308
2023-04-16T05:09:38.854Z,190.6923
2023-04-16T05:10:40.333Z,193.7692
2023-04-16T05:11:42.861Z,193.8462
2023-04-16T05:12:43.356Z,200.0000
2023-04-16T05:13:44.695Z,198.4615
2023-04-16T05:14:46.105Z,194.8462
2023-04-16T05:15:47.546Z,193.3846
2023-04-16T05:16:49.929Z,199.3846
2023-04-16T05:17:50.766Z,202.6923
2023-04-16T05:18:51.816Z,209.7692
2023-04-16T05:19:53.292Z,203.0000
2023-04-16T05:20:54.768Z,201.6154
2023-04-16T05:21:56.243Z,203.9231
2023-04-16T05:22:57.705Z,207.3077
2023-04-16T05:23:59.108Z,210.0769
2023-04-16T05:25:00.476Z,217.7692
2023-04-16T05:26:01.980Z,210.6923
2023-04-16T05:27:03.535Z,201.8462
2023-04-16T05:28:04.833Z,192.7692
2023-04-16T05:29:06.201Z,210.0000
2023-04-16T05:30:07.709Z,227.5385
2023-04-16T05:31:09.234Z,223.6923
2023-04-16T05:32:10.587Z,211.0000
2023-04-16T05:33:12.042Z,200.9231
2023-04-16T05:34:13.361Z,199.0769
2023-04-16T05:35:17.231Z,219.6923
2023-04-16T05:36:16.289Z,228.9231
2023-04-16T05:37:18.258Z,226.3077
2023-04-16T05:38:19.171Z,215.0769
2023-04-16T05:39:20.594Z,207.4615
2023-04-16T05:40:22.020Z,210.7692
2023-04-16T05:41:23.510Z,226.9231
2023-04-16T05:42:24.885Z,233.6923
2023-04-16T05:43:26.290Z,229.1538
2023-04-16T05:44:28.238Z,219.3077
2023-04-16T05:45:29.166Z,202.0000
2023-04-16T05:46:30.830Z,220.1538
2023-04-16T05:47:32.117Z,235.4615
2023-04-16T05:48:33.522Z,235.3846
2023-04-16T05:49:34.971Z,226.9231
2023-04-16T05:50:36.355Z,224.6923
2023-04-16T05:51:37.923Z,221.3846
2023-04-16T05:52:39.204Z,230.4615
2023-04-16T05:53:40.694Z,240.6923
2023-04-16T05:54:42.084Z,241.3077
2023-04-16T05:55:43.447Z,228.6154
2023-04-16T05:56:44.941Z,223.4615
2023-04-16T05:57:46.386Z,223.3077
2023-04-16T05:58:47.829Z,237.6154
2023-04-16T05:59:51.280Z,243.8462
2023-04-16T06:00:50.671Z,229.3077
2023-04-16T06:01:52.202Z,220.8462
2023-04-16T06:02:53.751Z,213.6923
2023-04-16T06:03:55.200Z,227.1538
2023-04-16T06:04:56.479Z,239.3077
2023-04-16T06:05:58.069Z,240.2308
2023-04-16T06:06:59.299Z,233.0769
2023-04-16T06:08:00.810Z,222.1538
2023-04-16T06:09:02.237Z,228.0000
2023-04-16T06:10:03.666Z,241.2308
2023-04-16T06:11:05.106Z,251.7692
2023-04-16T06:12:06.546Z,240.6154
2023-04-16T06:13:07.967Z,228.6923
2023-04-16T06:14:09.405Z,227.9231
2023-04-16T06:15:10.877Z,234.8462
2023-04-16T06:16:12.218Z,249.0000
2023-04-16T06:17:13.732Z,247.9231
2023-04-16T06:18:15.142Z,233.2308
2023-04-16T06:19:16.610Z,223.1538
2023-04-16T06:20:18.013Z,221.8462
2023-04-16T06:21:19.474Z,237.5385
2023-04-16T06:22:20.857Z,247.2308
2023-04-16T06:23:23.370Z,237.6154
2023-04-16T06:24:23.766Z,234.0000
2023-04-16T06:25:25.221Z,225.7692
2023-04-16T06:26:26.641Z,235.3077
2023-04-16T06:27:28.104Z,252.7692
2023-04-16T06:28:29.549Z,245.9231
2023-04-16T06:29:40.455Z,239.0000
2023-04-16T06:30:32.399Z,233.0000
2023-04-16T06:31:33.827Z,234.5385
2023-04-16T06:32:35.195Z,249.0769
2023-04-16T06:33:36.647Z,255.9231
2023-04-16T06:34:38.105Z,237.0000
2023-04-16T06:35:39.559Z,238.4615
2023-04-16T06:36:40.929Z,231.1538
2023-04-16T06:37:42.381Z,239.0000
2023-04-16T06:38:43.813Z,254.8462
2023-04-16T06:39:45.264Z,247.8462
2023-04-16T06:40:46.707Z,239.3846
2023-04-16T06:41:48.134Z,228.3846
2023-04-16T06:42:49.554Z,237.6923
2023-04-16T06:43:50.987Z,254.6923
2023-04-16T06:44:52.450Z,256.3077
2023-04-16T06:45:53.908Z,243.4615
2023-04-16T06:46:55.308Z,244.0000
2023-04-16T06:47:56.810Z,245.6923
2023-04-16T06:48:58.169Z,260.0000
2023-04-16T06:49:59.677Z,259.6923
2023-04-16T06:51:01.098Z,245.9231
2023-04-16T06:52:04.569Z,246.0769
2023-04-16T06:53:03.925Z,245.1538
2023-04-16T06:54:05.391Z,256.2308
2023-04-16T06:55:06.772Z,264.0769
2023-04-16T06:56:08.301Z,250.2308
2023-04-16T06:57:09.692Z,245.8462
2023-04-16T06:58:11.096Z,240.6154
2023-04-16T06:59:12.496Z,251.1538
2023-04-16T07:00:14.023Z,265.7692
2023-04-16T07:01:15.490Z,254.6923
2023-04-16T07:02:17.058Z,249.6923
2023-04-16T07:03:18.365Z,246.6154
2023-04-16T07:04:19.789Z,249.6923
2023-04-16T07:05:21.178Z,264.5385
2023-04-16T07:06:22.643Z,263.7692
2023-04-16T07:07:24.028Z,251.4615
2023-04-16T07:08:25.509Z,243.1538
2023-04-16T07:09:26.943Z,250.0769
2023-04-16T07:10:28.409Z,266.5385
2023-04-16T07:11:29.798Z,270.7692
2023-04-16T07:12:31.227Z,258.1538
2023-04-16T07:13:32.691Z,251.9231
2023-04-16T07:14:34.145Z,249.3077
2023-04-16T07:15:35.816Z,260.0769
2023-04-16T07:16:37.091Z,270.8462
2023-04-16T07:17:38.464Z,259.9231
2023-04-16T07:18:39.897Z,262.2308
2023-04-16T07:19:42.274Z,247.3077
2023-04-16T07:20:42.858Z,249.2308
2023-04-16T07:21:44.210Z,266.3846
2023-04-16T07:22:45.649Z,272.3077
2023-04-16T07:23:47.024Z,264.2308
2023-04-16T07:24:48.538Z,262.3077
2023-04-16T07:25:49.975Z,262.3077
2023-04-16T07:26:51.474Z,270.7692
2023-04-16T07:27:52.803Z,280.5385
2023-04-16T07:28:54.268Z,278.0000
2023-04-16T07:29:55.672Z,270.7692
2023-04-16T07:30:57.190Z,262.2308
2023-04-16T07:31:58.654Z,272.6923
2023-04-16T07:33:00.111Z,283.3846
2023-04-16T07:34:01.436Z,278.4615
2023-04-16T07:35:02.892Z,264.5385
2023-04-16T07:36:04.372Z,264.7692
2023-04-16T07:37:05.801Z,261.6923
2023-04-16T07:38:07.162Z,274.6923
2023-04-16T07:39:08.937Z,273.7692
2023-04-16T07:40:10.029Z,264.9231
2023-04-16T07:41:11.538Z,259.0769
2023-04-16T07:42:12.976Z,249.5385
2023-04-16T07:43:14.401Z,258.5385
2023-04-16T07:44:15.815Z,279.1538
2023-04-16T07:45:17.252Z,271.0769
2023-04-16T07:46:18.752Z,265.6923
2023-04-16T07:47:20.209Z,265.4615
2023-04-16T07:48:21.549Z,264.0769
2023-04-16T07:49:23.015Z,274.0000
2023-04-16T07:50:24.416Z,272.6923
2023-04-16T07:51:25.870Z,262.0769
2023-04-16T07:52:27.353Z,254.9231
2023-04-16T07:53:28.700Z,248.3846
2023-04-16T07:54:30.245Z,264.7692
2023-04-16T07:55:31.626Z,274.0769
2023-04-16T07:56:33.190Z,261.6923
2023-04-16T07:57:34.490Z,259.2308
2023-04-16T07:58:35.908Z,261.1538
2023-04-16T07:59:37.386Z,270.6154
2023-04-16T08:00:38.811Z,282.1538
2023-04-16T08:01:40.280Z,277.6154
2023-04-16T08:02:41.927Z,266.3846
2023-04-16T08:03:43.323Z,265.8462
2023-04-16T08:04:44.974Z,267.3846
2023-04-16T08:05:45.991Z,276.4615
2023-04-16T08:06:47.534Z,280.9231
2023-04-16T08:07:48.893Z,265.3077
2023-04-16T08:08:50.374Z,264.6923
2023-04-16T08:09:51.747Z,255.3846
2023-04-16T08:10:53.201Z,275.6923
2023-04-16T08:11:54.664Z,288.6923
2023-04-16T08:12:56.110Z,269.8462
2023-04-16T08:13:57.495Z,271.9231
2023-04-16T08:14:58.945Z,257.8462
2023-04-16T08:16:00.394Z,267.7692
2023-04-16T08:17:01.867Z,281.9231
2023-04-16T08:18:03.338Z,274.5385
2023-04-16T08:19:04.755Z,270.5385
2023-04-16T08:20:06.228Z,267.7692
2023-04-16T08:21:07.628Z,268.2308
2023-04-16T08:22:09.070Z,275.6923
2023-04-16T08:23:10.512Z,286.2308
2023-04-16T08:24:12.905Z,277.3846
2023-04-16T08:25:13.325Z,266.3077
2023-04-16T08:26:14.816Z,255.8462
2023-04-16T08:27:19.746Z,265.9231
2023-04-16T08:28:17.710Z,280.5385
2023-04-16T08:29:19.059Z,270.1538
2023-04-16T08:30:20.558Z,267.6154
2023-04-16T08:31:22.031Z,266.2308
2023-04-16T08:32:23.508Z,273.6154
2023-04-16T08:33:24.943Z,277.6154
2023-04-16T08:34:26.296Z,279.6923
2023-04-16T08:35:27.769Z,269.8462
2023-04-16T08:36:29.176Z,262.3077
2023-04-16T08:37:30.614Z,258.7692
2023-04-16T08:38:32.121Z,276.3846
2023-04-16T08:39:33.460Z,283.3846
2023-04-16T08:40:34.976Z,269.6923
2023-04-16T08:41:36.360Z,268.3077
2023-04-16T08:42:37.914Z,269.3077
2023-04-16T08:43:39.316Z,270.2308
2023-04-16T08:44:40.728Z,285.6154
2023-04-16T08:45:42.111Z,273.1538
2023-04-16T08:46:43.809Z,269.8462
2023-04-16T08:47:45.091Z,256.8462
2023-04-16T08:48:46.540Z,271.0769
2023-04-16T08:49:47.847Z,282.8462
2023-04-16T08:50:49.393Z,277.8462
2023-04-16T08:51:50.782Z,271.5385
2023-04-16T08:52:52.272Z,261.3846
2023-04-16T08:53:53.748Z,261.8462
2023-04-16T08:54:56.697Z,275.5385
2023-04-16T08:55:56.544Z,282.6154
2023-04-16T08:56:58.816Z,263.9231
2023-04-16T08:57:59.534Z,255.3846
2023-04-16T08:59:00.902Z,248.3077
2023-04-16T09:00:02.321Z,259.0769
2023-04-16T09:01:03.700Z,271.9231
2023-04-16T09:02:05.300Z,269.8462
2023-04-16T09:03:06.930Z,249.9231
2023-04-16T09:04:08.226Z,234.6154
2023-04-16T09:05:09.507Z,236.3077
2023-04-16T09:06:10.979Z,247.3846
2023-04-16T09:07:12.362Z,257.3846
2023-04-16T09:08:13.929Z,245.9231
2023-04-16T09:09:15.281Z,233.6154
2023-04-16T09:10:16.737Z,224.1538
2023-04-16T09:11:18.168Z,231.8462
2023-04-16T09:12:19.720Z,245.6154
2023-04-16T09:13:21.220Z,251.5385
2023-04-16T09:14:22.658Z,236.2308
2023-04-16T09:15:24.045Z,229.3846
2023-04-16T09:16:25.539Z,224.2308
2023-04-16T09:17:26.957Z,222.8462
2023-04-16T09:18:28.377Z,240.5385
2023-04-16T09:19:29.894Z,245.1538
2023-04-16T09:20:31.327Z,230.6923
2023-04-16T09:21:32.732Z,223.3846
2023-04-16T09:22:34.127Z,219.8462
2023-04-16T09:23:35.637Z,224.3846
2023-04-16T09:24:37.100Z,228.9231
2023-04-16T09:25:38.599Z,230.6154
2023-04-16T09:26:39.892Z,225.1538
2023-04-16T09:27:41.371Z,213.1538
2023-04-16T09:28:42.853Z,216.4615
2023-04-16T09:29:44.301Z,224.0000
2023-04-16T09:30:45.713Z,230.4615
2023-04-16T09:31:47.205Z,236.1538
2023-04-16T09:32:48.584Z,220.0000
2023-04-16T09:33:50.138Z,199.5385
2023-04-16T09:34:51.471Z,209.0769
2023-04-16T09:35:52.982Z,213.1538
2023-04-16T09:36:54.418Z,219.6923
2023-04-16T09:37:55.821Z,215.6154
2023-04-16T09:38:57.808Z,210.6923
2023-04-16T09:39:58.768Z,206.3846
2023-04-16T09:41:00.129Z,212.5385
2023-04-16T09:42:01.668Z,216.8462
2023-04-16T09:43:03.079Z,218.4615
2023-04-16T09:44:04.514Z,214.3846
2023-04-16T09:45:06.508Z,204.9231
2023-04-16T09:46:08.416Z,197.6154
2023-04-16T09:47:08.750Z,206.1538
2023-04-16T09:48:10.266Z,210.2308
2023-04-16T09:49:11.962Z,215.9231
2023-04-16T09:50:13.315Z,209.9231
2023-04-16T09:51:14.703Z,199.4615
2023-04-16T09:52:16.075Z,198.0769
2023-04-16T09:53:18.452Z,203.2308
2023-04-16T09:54:19.015Z,210.0000
2023-04-16T09:55:20.454Z,213.9231
2023-04-16T09:56:21.894Z,211.1538
2023-04-16T09:57:23.336Z,194.3077
2023-04-16T09:58:24.720Z,201.4615
2023-04-16T09:59:26.204Z,216.9231
2023-04-16T10:00:27.623Z,219.2308
2023-04-16T10:01:29.187Z,213.8462
2023-04-16T10:02:30.501Z,205.0769
2023-04-16T10:03:32.159Z,198.7692
2023-04-16T10:04:33.408Z,216.6154
2023-04-16T10:05:34.939Z,234.2308
2023-04-16T10:06:36.274Z,224.3077
2023-04-16T10:07:37.696Z,222.2308
2023-04-16T10:08:39.106Z,211.3846
2023-04-16T10:09:40.597Z,225.4615
2023-04-16T10:10:42.039Z,237.1538
2023-04-16T10:11:43.526Z,237.0000
2023-04-16T10:12:44.882Z,234.7692
2023-04-16T10:13:46.373Z,230.4615
2023-04-16T10:14:49.606Z,228.3077
2023-04-16T10:15:49.329Z,245.3846
2023-04-16T10:16:50.684Z,251.4615
2023-04-16T10:17:53.023Z,242.1538
2023-04-16T10:18:53.555Z,241.7692
2023-04-16T10:19:55.017Z,230.0000
2023-04-16T10:20:56.927Z,243.1538
2023-04-16T10:21:57.956Z,258.9231
2023-04-16T10:22:59.353Z,258.4615
2023-04-16T10:24:00.817Z,252.7692
2023-04-16T10:25:02.199Z,239.6923
2023-04-16T10:26:03.755Z,237.6154
2023-04-16T10:27:05.136Z,254.2308
2023-04-16T10:28:06.634Z,267.0769
2023-04-16T10:29:08.093Z,259.0769
2023-04-16T10:30:09.495Z,259.7692
2023-04-16T10:31:11.031Z,244.4615
2023-04-16T10:32:12.351Z,247.5385
2023-04-16T10:33:13.856Z,264.5385
2023-04-16T10:34:15.192Z,263.5385
2023-04-16T10:35:16.714Z,256.2308
2023-04-16T10:36:18.137Z,241.0769
2023-04-16T10:37:19.647Z,237.0000
2023-04-16T10:38:21.058Z,246.4615
2023-04-16T10:39:22.432Z,262.7692
2023-04-16T10:40:23.840Z,252.3077
2023-04-16T10:41:25.352Z,241.2308
2023-04-16T10:42:26.799Z,227.9231
2023-04-16T10:43:28.455Z,229.3846
2023-04-16T10:44:29.727Z,241.9231
2023-04-16T10:45:31.078Z,257.9231
2023-04-16T10:46:32.589Z,246.3846
2023-04-16T10:47:34.010Z,238.0000
2023-04-16T10:48:46.564Z,227.0000
2023-04-16T10:49:36.909Z,234.6154
2023-04-16T10:50:38.267Z,242.7692
2023-04-16T10:51:39.739Z,258.0769
2023-04-16T10:52:41.254Z,242.9231
2023-04-16T10:53:42.913Z,230.3846
2023-04-16T10:54:44.156Z,220.9231
2023-04-16T10:55:45.555Z,228.2308
2023-04-16T10:56:47.011Z,244.0769
2023-04-16T10:57:48.389Z,244.6154
2023-04-16T10:58:49.912Z,235.4615
2023-04-16T10:59:51.375Z,223.9231
2023-04-16T11:00:52.736Z,228.9231
2023-04-16T11:01:54.377Z,228.3077
2023-04-16T11:02:55.709Z,236.9231
2023-04-16T11:03:57.319Z,240.0000
2023-04-16T11:04:58.646Z,229.6154
2023-04-16T11:05:59.902Z,220.0000
2023-04-16T11:07:01.410Z,218.1538
2023-04-16T11:08:02.777Z,229.1538
2023-04-16T11:09:04.287Z,238.0000
2023-04-16T11:10:05.764Z,239.5385
2023-04-16T11:11:07.314Z,228.6923
2023-04-16T11:12:08.538Z,217.3846
2023-04-16T11:13:10.046Z,219.9231
2023-04-16T11:14:12.417Z,228.8462
2023-04-16T11:15:13.917Z,243.3077
2023-04-16T11:16:14.444Z,246.6923
2023-04-16T11:17:15.795Z,226.0000
2023-04-16T11:18:17.242Z,213.0000
2023-04-16T11:19:18.691Z,217.6154
2023-04-16T11:20:20.929Z,230.9231
2023-04-16T11:21:21.609Z,238.9231
2023-04-16T11:22:23.169Z,236.4615
2023-04-16T11:23:24.431Z,225.8462
2023-04-16T11:24:26.352Z,211.9231
2023-04-16T11:25:27.286Z,220.7692
2023-04-16T11:26:28.889Z,229.3077
2023-04-16T11:27:30.240Z,237.8462
2023-04-16T11:28:31.724Z,233.0000
2023-04-16T11:29:33.106Z,222.2308
2023-04-16T11:30:34.644Z,211.8462
2023-04-16T11:31:36.155Z,218.7692
2023-04-16T11:32:37.529Z,230.3077
2023-04-16T11:33:38.922Z,238.4615
2023-04-16T11:34:40.390Z,226.6923
2023-04-16T11:35:41.810Z,223.6923
2023-04-16T11:36:43.262Z,216.3077
2023-04-16T11:37:44.702Z,222.2308
2023-04-16T11:38:46.141Z,232.3077
2023-04-16T11:39:47.536Z,236.7692
2023-04-16T11:40:48.987Z,235.0000
2023-04-16T11:41:50.471Z,218.5385
2023-04-16T11:42:52.423Z,214.2308
2023-04-16T11:43:53.356Z,229.2308
2023-04-16T11:44:54.788Z,233.3846
2023-04-16T11:45:56.211Z,248.1538
2023-04-16T11:46:57.771Z,232.9231
2023-04-16T11:47:59.182Z,222.3846
2023-04-16T11:49:00.487Z,213.8462
2023-04-16T11:50:02.059Z,226.7692
2023-04-16T11:51:03.438Z,231.0000
2023-04-16T11:52:04.903Z,242.0769
2023-04-16T11:53:06.400Z,231.8462
2023-04-16T11:54:09.142Z,220.1538
2023-04-16T11:55:09.160Z,216.5385
2023-04-16T11:56:10.616Z,224.8462
2023-04-16T11:57:12.057Z,235.3077
2023-04-16T11:58:13.564Z,241.0769
2023-04-16T11:59:15.248Z,229.5385
2023-04-16T12:00:16.370Z,216.0769
2023-04-16T12:01:17.783Z,215.6154
2023-04-16T12:02:19.324Z,225.0769